Moncure, North Carolina
Current Conditions -  °F | °C
As of 2:15 AM on Thursday 18 Dec 2014 (Local Time) from KTTA Reporting Station
Clear Clear  
Wind Chill: 34°   Ceiling: Unl
Heat Index: 34°   Visibility: 7mi
Dew Point: 34°   Wind: 0mph
Humidity: 100%   Direction: NA
Pressure: 30.09"   Gusts: NA
Location:  35.62°N, 79.08°W
Report Text: KTTA 180715Z AUTO 00000KT 7SM CLR 01/01 A3009 RMK AO2 T00090009
Loading
Personal Weather Stations






























Interactive Weather Map New forecast layout! Learn more

10-Day Weather Forecast

Advertisements
Track Severe Weather on mobile